Time;durP1;ratioP1;P1;durP2;ratioP2;P2;SDS_P1;SDS_P2;PMS_P1;PMS_P2;Temp;Humidity;BMP_temperature;BMP_pressure;BME280_temperature;BME280_humidity;BME280_pressure;Samples;Min_cycle;Max_cycle;Signal;HPM_P1;HPM_P2
2023/03/31 00:03:08;;;;;;;0.00;0.00;;;;;;;10.65;100.00;99992.59;10525634;28;20447;-82
2023/03/31 00:08:12;;;;;;;0.00;0.00;;;;;;;10.65;100.00;99984.03;10559903;28;20051;-81
2023/03/31 00:13:14;;;;;;;0.28;0.28;;;;;;;10.64;100.00;99970.25;10534515;28;20044;-80
2023/03/31 00:18:16;;;;;;;0.00;0.00;;;;;;;10.24;100.00;99977.53;10539063;28;20483;-80
2023/03/31 00:23:26;;;;;;;1.17;0.45;;;;;;;10.43;100.00;99951.16;10524534;28;20139;-82
2023/03/31 00:28:28;;;;;;;0.45;0.45;;;;;;;10.18;100.00;99939.69;10514582;28;20047;-81
2023/03/31 00:33:32;;;;;;;0.10;0.10;;;;;;;10.26;100.00;99911.44;10598900;27;20404;-81
2023/03/31 00:38:34;;;;;;;0.00;0.00;;;;;;;10.52;100.00;99900.59;10547880;28;20422;-81
2023/03/31 00:43:41;;;;;;;0.38;0.38;;;;;;;10.61;100.00;99892.97;10564492;28;20142;-81
2023/03/31 00:48:50;;;;;;;0.15;0.15;;;;;;;10.52;100.00;99882.59;10581482;28;20044;-81
2023/03/31 00:53:58;;;;;;;2.63;0.47;;;;;;;10.51;100.00;99855.09;10564225;28;20051;-81
2023/03/31 00:59:06;;;;;;;0.20;0.20;;;;;;;10.55;100.00;99846.53;10530925;28;20143;-81
2023/03/31 01:04:10;;;;;;;0.20;0.20;;;;;;;10.66;100.00;99819.16;10540511;28;20040;-82
2023/03/31 01:09:15;;;;;;;0.15;0.15;;;;;;;10.48;100.00;99825.88;10518229;28;20056;-80
2023/03/31 01:14:18;;;;;;;0.15;0.03;;;;;;;10.61;100.00;99815.72;10535721;28;20434;-80
2023/03/31 01:19:33;;;;;;;0.00;0.00;;;;;;;10.58;100.00;99810.50;10530622;28;20048;-80
2023/03/31 01:24:46;;;;;;;0.10;0.10;;;;;;;10.70;100.00;99784.00;10540383;28;20739;-80
2023/03/31 01:30:25;;;;;;;0.00;0.00;;;;;;;10.81;100.00;99776.34;10570321;28;20043;-80
2023/03/31 01:35:45;;;;;;;0.40;0.40;;;;;;;10.66;100.00;99759.94;10534291;28;20048;-80
2023/03/31 01:40:47;;;;;;;;;;;;;;;10.63;100.00;99701.53;10528112;28;20040;-81
2023/03/31 01:45:48;;;;;;;0.00;0.00;;;;;;;10.56;100.00;99683.44;10553771;28;19919;-83
2023/03/31 01:51:00;;;;;;;1.35;0.20;;;;;;;10.43;100.00;99637.03;10533162;28;20054;-83
2023/03/31 01:56:20;;;;;;;2.92;0.47;;;;;;;10.48;100.00;99583.81;10521753;28;20522;-83
2023/03/31 02:01:34;;;;;;;0.55;0.28;;;;;;;10.38;100.00;99545.16;10548415;28;20080;-81
2023/03/31 02:06:42;;;;;;;0.10;0.10;;;;;;;10.54;100.00;99518.63;10517479;28;20046;-82
2023/03/31 02:11:49;;;;;;;0.00;0.00;;;;;;;10.73;100.00;99501.50;10526693;28;20048;-83
2023/03/31 02:16:57;;;;;;;0.00;0.00;;;;;;;10.85;100.00;99484.34;10536854;28;20139;-84
2023/03/31 02:22:03;;;;;;;0.00;0.00;;;;;;;10.59;100.00;99475.72;10521257;28;20140;-83
2023/03/31 02:27:18;;;;;;;0.70;0.55;;;;;;;10.89;100.00;99450.03;10515484;28;20586;-83
2023/03/31 02:32:30;;;;;;;0.00;0.00;;;;;;;10.74;100.00;99438.84;10533109;28;20062;-83
2023/03/31 02:37:33;;;;;;;0.00;0.00;;;;;;;10.60;100.00;99430.22;10513158;28;20429;-84
2023/03/31 02:42:40;;;;;;;0.47;0.47;;;;;;;10.55;100.00;99408.72;10522124;28;20403;-82
2023/03/31 02:47:41;;;;;;;0.25;0.10;;;;;;;10.73;100.00;99390.75;10528080;28;20063;-83
2023/03/31 02:53:24;;;;;;;0.00;0.00;;;;;;;10.63;100.00;99373.56;10521162;28;20494;-84
2023/03/31 02:58:39;;;;;;;0.35;0.35;;;;;;;10.72;100.00;99339.25;10491129;28;20048;-83
2023/03/31 03:04:20;;;;;;;0.52;0.52;;;;;;;10.65;100.00;99337.53;10506509;28;20058;-84
2023/03/31 03:09:25;;;;;;;0.30;0.30;;;;;;;10.71;100.00;99304.88;10479822;28;20059;-85
2023/03/31 03:15:06;;;;;;;1.17;0.40;;;;;;;10.82;100.00;99293.72;10538630;28;20054;-85
2023/03/31 03:20:09;;;;;;;0.10;0.10;;;;;;;10.78;100.00;99285.97;10485135;28;20499;-85
2023/03/31 03:25:13;;;;;;;0.85;0.30;;;;;;;10.69;100.00;99283.41;10531700;28;20471;-84
2023/03/31 03:30:15;;;;;;;0.00;0.00;;;;;;;10.72;100.00;99270.53;10511266;28;20048;-83
2023/03/31 03:35:17;;;;;;;0.00;0.00;;;;;;;10.71;100.00;99271.41;10548849;27;20112;-83
2023/03/31 03:40:18;;;;;;;0.95;0.93;;;;;;;10.74;100.00;99250.78;10513930;28;20040;-82
2023/03/31 03:45:20;;;;;;;0.00;0.00;;;;;;;10.81;100.00;99235.31;10550957;28;20040;-83
2023/03/31 03:50:22;;;;;;;0.00;0.00;;;;;;;10.73;100.00;99213.03;10527166;28;20445;-84
2023/03/31 03:55:24;;;;;;;0.00;0.00;;;;;;;10.65;100.00;99190.72;10526846;28;20093;-83
2023/03/31 04:00:26;;;;;;;0.32;0.20;;;;;;;10.64;100.00;99187.28;10523636;28;20507;-85
2023/03/31 04:05:28;;;;;;;0.10;0.10;;;;;;;10.66;100.00;99172.69;10532987;28;20094;-85
2023/03/31 04:10:29;;;;;;;0.85;0.20;;;;;;;10.82;100.00;99155.44;10558119;28;20071;-86
2023/03/31 04:15:31;;;;;;;0.75;0.63;;;;;;;10.69;100.00;99167.50;10569045;28;20071;-83
2023/03/31 04:20:33;;;;;;;9.82;0.60;;;;;;;10.50;100.00;99171.84;10560134;28;20105;-85
2023/03/31 04:25:37;;;;;;;0.13;0.13;;;;;;;10.78;100.00;99144.31;10502351;28;20051;-86
2023/03/31 04:30:39;;;;;;;0.20;0.10;;;;;;;10.68;100.00;99136.59;10521351;28;20101;-85
2023/03/31 04:35:51;;;;;;;0.30;0.13;;;;;;;10.42;100.00;99127.25;10510851;28;20039;-84
2023/03/31 04:40:53;;;;;;;0.55;0.50;;;;;;;10.50;100.00;99106.63;10518662;28;20556;-83
2023/03/31 04:45:55;;;;;;;0.20;0.10;;;;;;;10.59;100.00;99070.56;10510540;28;20042;-84
2023/03/31 04:50:56;;;;;;;0.00;0.00;;;;;;;10.55;100.00;99054.25;10542075;28;20047;-84
2023/03/31 04:55:58;;;;;;;0.00;0.00;;;;;;;10.45;100.00;99040.56;10509518;28;20040;-84
2023/03/31 05:01:05;;;;;;;0.00;0.00;;;;;;;10.46;100.00;99013.09;10523147;28;20079;-83
2023/03/31 05:06:06;;;;;;;0.00;0.00;;;;;;;10.70;100.00;98990.66;10510906;28;20119;-84
2023/03/31 05:11:10;;;;;;;2.72;0.90;;;;;;;10.58;100.00;98989.00;10515143;28;20066;-84
2023/03/31 05:16:13;;;;;;;0.03;0.03;;;;;;;10.73;100.00;98975.19;10515146;28;20036;-84
2023/03/31 05:21:18;;;;;;;0.28;0.17;;;;;;;10.66;100.00;98958.06;10514517;28;20040;-84
2023/03/31 05:26:21;;;;;;;0.00;0.00;;;;;;;10.68;100.00;98957.22;10520548;28;20040;-85
2023/03/31 05:31:23;;;;;;;0.10;0.10;;;;;;;10.72;100.00;98948.59;10521774;28;20043;-84
2023/03/31 05:36:25;;;;;;;0.10;0.00;;;;;;;10.67;100.00;98950.34;10538699;28;20044;-83
2023/03/31 05:41:28;;;;;;;0.20;0.10;;;;;;;10.96;100.00;98944.13;10521589;28;20052;-83
2023/03/31 05:46:29;;;;;;;0.10;0.10;;;;;;;10.70;100.00;98942.56;10521385;28;20059;-83
2023/03/31 05:51:31;;;;;;;1.45;0.47;;;;;;;10.84;100.00;98919.31;10521727;28;20507;-81
2023/03/31 05:56:33;;;;;;;2.38;1.70;;;;;;;11.03;100.00;98916.59;10539393;28;20040;-83
2023/03/31 06:01:35;;;;;;;0.00;0.00;;;;;;;10.92;100.00;98916.66;10521837;28;20052;-84
2023/03/31 06:06:37;;;;;;;0.00;0.00;;;;;;;10.74;100.00;98908.22;10521747;28;20487;-83
2023/03/31 06:11:39;;;;;;;0.00;0.00;;;;;;;10.88;100.00;98907.25;10520891;28;20048;-82
2023/03/31 06:16:40;;;;;;;0.90;0.65;;;;;;;10.74;100.00;98900.50;10537770;28;20048;-83
2023/03/31 06:21:42;;;;;;;0.00;0.00;;;;;;;10.72;100.00;98906.53;10554300;28;20040;-83
2023/03/31 06:26:44;;;;;;;0.28;0.13;;;;;;;10.61;100.00;98897.16;10527887;28;20488;-82
2023/03/31 06:31:45;;;;;;;0.10;0.10;;;;;;;10.72;100.00;98888.50;10544540;28;20380;-83
2023/03/31 06:36:47;;;;;;;0.00;0.00;;;;;;;10.76;100.00;98888.44;10521821;28;20046;-82
2023/03/31 06:41:49;;;;;;;0.50;0.38;;;;;;;10.70;100.00;98888.50;10532201;28;20048;-82
2023/03/31 06:46:59;;;;;;;0.20;0.20;;;;;;;10.63;100.00;98889.41;10531220;28;20051;-82
2023/03/31 06:52:02;;;;;;;8.20;0.30;;;;;;;10.66;100.00;98881.66;10557547;28;20044;-82
2023/03/31 06:57:04;;;;;;;0.10;0.10;;;;;;;10.75;100.00;98876.47;10533981;28;20135;-83
2023/03/31 07:02:06;;;;;;;0.00;0.00;;;;;;;10.76;100.00;98875.56;10507428;28;20040;-84
2023/03/31 07:07:08;;;;;;;0.20;0.00;;;;;;;10.70;100.00;98883.34;10525744;28;20476;-84
2023/03/31 07:12:10;;;;;;;0.00;0.00;;;;;;;10.89;100.00;98888.38;10541610;28;20048;-83
2023/03/31 07:17:11;;;;;;;0.32;0.32;;;;;;;10.91;100.00;98884.03;10525023;28;20401;-82
2023/03/31 07:22:14;;;;;;;0.80;0.20;;;;;;;10.60;100.00;98877.41;10525356;28;20089;-80
2023/03/31 07:27:16;;;;;;;0.30;0.20;;;;;;;10.74;100.00;98864.44;10540956;28;20071;-81
2023/03/31 07:32:18;;;;;;;0.05;0.03;;;;;;;10.48;100.00;98852.59;10540842;28;20052;-84
2023/03/31 07:37:20;;;;;;;0.47;0.40;;;;;;;10.49;100.00;98835.44;10524593;28;20119;-84
2023/03/31 07:42:21;;;;;;;1.08;0.10;;;;;;;10.36;100.00;98816.63;10528550;28;20134;-82
2023/03/31 07:47:24;;;;;;;0.00;0.00;;;;;;;10.39;100.00;98800.31;10531420;28;20036;-84
2023/03/31 07:52:25;;;;;;;0.00;0.00;;;;;;;10.31;100.00;98798.63;10547344;28;20044;-84
2023/03/31 07:57:27;;;;;;;0.08;0.08;;;;;;;10.58;100.00;98776.13;10528557;28;20045;-84
2023/03/31 08:02:29;;;;;;;0.00;0.00;;;;;;;10.35;100.00;98784.00;10540051;28;20570;-82
2023/03/31 08:07:40;;;;;;;0.00;0.00;;;;;;;10.37;100.00;98758.28;10515510;28;20036;-83
2023/03/31 08:12:42;;;;;;;0.00;0.00;;;;;;;10.31;100.00;98756.59;10516244;28;20394;-85
2023/03/31 08:17:44;;;;;;;0.00;0.00;;;;;;;10.20;100.00;98750.66;10493344;28;20507;-82
2023/03/31 08:22:46;;;;;;;0.17;0.10;;;;;;;10.37;100.00;98741.13;10500847;28;20044;-83
2023/03/31 08:27:49;;;;;;;0.00;0.00;;;;;;;10.50;100.00;98733.31;10507182;28;20135;-84
2023/03/31 08:32:54;;;;;;;0.00;0.00;;;;;;;10.31;100.00;98736.00;10551680;28;20058;-83
2023/03/31 08:37:55;;;;;;;0.00;0.00;;;;;;;10.76;100.00;98713.28;10493935;28;20055;-84
2023/03/31 08:43:10;;;;;;;0.00;0.00;;;;;;;10.95;100.00;98692.50;10527133;28;20109;-83
2023/03/31 08:48:26;;;;;;;0.05;0.05;;;;;;;11.08;100.00;98691.50;10515661;28;20044;-82
2023/03/31 08:53:33;;;;;;;0.00;0.00;;;;;;;10.77;100.00;98715.00;10541074;28;20068;-81
2023/03/31 08:58:41;;;;;;;0.10;0.00;;;;;;;10.86;100.00;98702.91;10540341;28;20548;-83
2023/03/31 09:04:24;;;;;;;0.00;0.00;;;;;;;11.30;100.00;98693.81;10555901;28;20493;-84
2023/03/31 09:09:45;;;;;;;0.00;0.00;;;;;;;11.64;100.00;98689.94;10533072;28;20055;-84
2023/03/31 09:15:00;;;;;;;0.10;0.10;;;;;;;11.76;100.00;98687.19;10523964;28;20487;-84
2023/03/31 09:20:13;;;;;;;0.47;0.15;;;;;;;11.83;100.00;98693.09;10537707;28;20047;-82
2023/03/31 09:25:32;;;;;;;0.22;0.08;;;;;;;11.68;100.00;98709.66;10518474;28;20055;-85
2023/03/31 09:30:35;;;;;;;0.00;0.00;;;;;;;11.71;100.00;98710.47;10511748;28;20047;-84
2023/03/31 09:35:37;;;;;;;0.20;0.10;;;;;;;11.92;100.00;98721.34;10540672;28;20036;-85
2023/03/31 09:40:41;;;;;;;0.00;0.00;;;;;;;12.68;100.00;98708.09;10505016;28;20040;-84
2023/03/31 09:45:43;;;;;;;0.13;0.10;;;;;;;12.84;100.00;98725.91;10541079;28;20498;-85
2023/03/31 09:51:07;;;;;;;3.00;2.05;;;;;;;13.88;100.00;98727.28;10515024;28;20080;-84
2023/03/31 09:56:10;;;;;;;0.00;0.00;;;;;;;12.70;100.00;98776.06;10545449;28;20085;-85
2023/03/31 10:01:13;;;;;;;0.00;0.00;;;;;;;12.57;100.00;98766.84;10539211;28;20130;-85
2023/03/31 10:06:16;;;;;;;0.25;0.20;;;;;;;12.63;100.00;98755.56;10505932;28;20040;-84
2023/03/31 10:11:18;;;;;;;0.00;0.00;;;;;;;12.60;100.00;98743.56;10522335;28;20522;-86
2023/03/31 10:16:22;;;;;;;0.13;0.10;;;;;;;13.13;100.00;98727.09;10522150;28;20048;-85
2023/03/31 10:21:26;;;;;;;0.00;0.00;;;;;;;13.30;100.00;98719.84;10521738;28;20060;-85
2023/03/31 10:26:28;;;;;;;0.70;0.10;;;;;;;13.26;100.00;98753.53;10538950;28;20051;-85
2023/03/31 10:31:36;;;;;;;0.10;0.00;;;;;;;13.32;100.00;98768.97;10525637;28;20048;-86
2023/03/31 10:36:46;;;;;;;0.05;0.03;;;;;;;13.33;100.00;98781.84;10520674;28;20036;-85
2023/03/31 10:41:52;;;;;;;0.10;0.10;;;;;;;13.64;100.00;98786.44;10517683;28;20040;-85
2023/03/31 10:46:53;;;;;;;0.00;0.00;;;;;;;13.54;100.00;98821.13;10526969;28;20028;-86
2023/03/31 10:52:00;;;;;;;2.92;0.28;;;;;;;13.47;100.00;98846.28;10509275;28;20146;-84
2023/03/31 10:57:05;;;;;;;0.10;0.10;;;;;;;13.38;100.00;98889.53;10503189;28;20040;-85
2023/03/31 11:02:20;;;;;;;0.10;0.00;;;;;;;13.32;100.00;98919.78;10517440;28;20043;-85
2023/03/31 11:07:40;;;;;;;0.10;0.10;;;;;;;13.45;100.00;98927.38;10518149;28;20094;-81
2023/03/31 11:12:50;;;;;;;5.00;0.73;;;;;;;13.42;100.00;98941.22;10535396;28;20051;-82
2023/03/31 11:18:04;;;;;;;1.48;0.38;;;;;;;13.25;100.00;98948.38;10505830;28;20044;-82
2023/03/31 11:23:25;;;;;;;0.90;0.13;;;;;;;13.31;100.00;98938.78;10529907;28;20047;-82
2023/03/31 11:28:48;;;;;;;2.25;1.02;;;;;;;13.15;100.00;98932.13;10534367;28;20125;-83
2023/03/31 11:34:09;;;;;;;11.55;0.43;;;;;;;13.39;100.00;98930.06;10529764;28;20110;-82
2023/03/31 11:39:31;;;;;;;0.00;0.00;;;;;;;13.76;100.00;98929.41;10534912;27;20042;-82
2023/03/31 11:45:10;;;;;;;0.38;0.10;;;;;;;13.51;100.00;98934.16;10534599;28;20055;-85
2023/03/31 11:50:18;;;;;;;0.03;0.03;;;;;;;13.71;100.00;98949.34;10513306;28;20051;-86
2023/03/31 11:55:24;;;;;;;1.38;0.50;;;;;;;13.91;100.00;98965.34;10517296;28;20040;-87
2023/03/31 12:00:31;;;;;;;1.88;0.32;;;;;;;13.90;100.00;98999.88;10501411;28;20059;-89
2023/03/31 12:05:39;;;;;;;0.00;0.00;;;;;;;13.76;100.00;99007.03;10538070;28;20071;-86
2023/03/31 12:10:54;;;;;;;0.22;0.20;;;;;;;13.62;100.00;98994.34;10541032;28;20044;-87
2023/03/31 12:16:04;;;;;;;0.80;0.80;;;;;;;13.67;100.00;98977.00;10512870;28;20040;-89
2023/03/31 12:21:08;;;;;;;0.00;0.00;;;;;;;14.09;100.00;98953.78;10520058;28;20040;-87
2023/03/31 12:26:25;;;;;;;0.20;0.20;;;;;;;13.76;100.00;98963.03;10518995;28;20055;-88
2023/03/31 12:31:29;;;;;;;0.52;0.45;;;;;;;13.82;100.00;98951.72;10515555;28;20078;-88
2023/03/31 12:36:53;;;;;;;0.15;0.15;;;;;;;14.02;100.00;98947.00;10502860;28;20040;-88
2023/03/31 12:42:15;;;;;;;0.57;0.25;;;;;;;14.38;100.00;98951.50;10530324;28;20109;-85
2023/03/31 12:47:28;;;;;;;0.00;0.00;;;;;;;14.06;100.00;98966.81;10546456;28;20075;-86
2023/03/31 12:52:57;;;;;;;0.00;0.00;;;;;;;14.59;100.00;98953.63;10499331;28;20055;-86
2023/03/31 12:58:25;;;;;;;9.07;0.65;;;;;;;14.39;100.00;98977.34;10531761;28;20390;-88
2023/03/31 13:03:33;;;;;;;1.02;0.43;;;;;;;14.46;100.00;98954.78;10524378;28;20466;-85
2023/03/31 13:08:59;;;;;;;0.20;0.20;;;;;;;14.11;100.00;98953.78;10515783;28;20380;-90
2023/03/31 13:14:03;;;;;;;5.95;0.25;;;;;;;14.26;100.00;98981.91;10543525;28;20051;-87
2023/03/31 13:19:06;;;;;;;0.10;0.10;;;;;;;14.46;100.00;98962.53;10519402;28;20102;-83
2023/03/31 13:24:11;;;;;;;0.98;0.57;;;;;;;14.64;100.00;98966.47;10538063;28;20040;-85
2023/03/31 13:29:13;;;;;;;0.82;0.68;;;;;;;14.27;100.00;98980.19;10515055;28;20055;-84
2023/03/31 13:34:15;;;;;;;0.00;0.00;;;;;;;14.07;100.00;98980.59;10529760;28;20069;-84
2023/03/31 13:39:44;;;;;;;0.73;0.22;;;;;;;14.15;100.00;98952.81;10570156;28;20104;-84
2023/03/31 13:45:40;;;;;;;0.55;0.10;;;;;;;14.04;100.00;98958.22;10526153;28;20131;-84
2023/03/31 13:51:04;;;;;;;0.32;0.03;;;;;;;14.01;100.00;98927.19;10475394;28;20052;-86
2023/03/31 13:56:42;;;;;;;2.08;0.45;;;;;;;14.22;100.00;98915.53;10532227;28;20090;-85
2023/03/31 14:01:44;;;;;;;3.45;1.00;;;;;;;14.01;100.00;98908.22;10563908;28;20040;-85
2023/03/31 14:06:55;;;;;;;1.45;0.52;;;;;;;13.80;100.00;98906.03;10517059;28;20040;-87
2023/03/31 14:11:58;;;;;;;0.00;0.00;;;;;;;14.05;100.00;98895.19;10518358;28;20047;-86
2023/03/31 14:17:02;;;;;;;0.22;0.17;;;;;;;12.96;100.00;98847.16;10526001;28;20131;-84
2023/03/31 14:22:03;;;;;;;0.55;0.30;;;;;;;12.49;100.00;98771.28;10516648;28;20044;-85
2023/03/31 14:27:29;;;;;;;0.00;0.00;;;;;;;12.48;100.00;98754.94;10518817;28;20044;-86
2023/03/31 14:32:58;;;;;;;5.22;0.98;;;;;;;12.91;100.00;98727.50;10514998;28;20475;-83
2023/03/31 14:38:05;;;;;;;0.90;0.28;;;;;;;14.06;100.00;98740.66;10547378;28;20036;-85
2023/03/31 14:43:17;;;;;;;0.32;0.13;;;;;;;13.62;100.00;98766.66;10513983;28;20044;-85
2023/03/31 14:48:20;;;;;;;5.07;0.28;;;;;;;13.90;100.00;98753.13;10525543;28;20043;-84
2023/03/31 14:53:25;;;;;;;0.00;0.00;;;;;;;13.52;100.00;98776.31;10511521;28;20052;-84
2023/03/31 14:58:33;;;;;;;0.00;0.00;;;;;;;13.11;100.00;98781.38;10522375;28;20031;-84
2023/03/31 15:03:43;;;;;;;0.00;0.00;;;;;;;13.21;100.00;98765.72;10531229;28;20403;-85
2023/03/31 15:08:44;;;;;;;0.10;0.10;;;;;;;13.15;100.00;98757.19;10539860;28;20510;-84
2023/03/31 15:13:51;;;;;;;0.43;0.43;;;;;;;12.80;100.00;98750.09;10529230;28;20495;-85
2023/03/31 15:19:18;;;;;;;1.27;0.82;;;;;;;12.54;100.00;98734.16;10516410;28;20043;-83
2023/03/31 15:24:21;;;;;;;0.10;0.05;;;;;;;12.48;100.00;98720.50;10530030;28;20082;-84
2023/03/31 15:29:32;;;;;;;0.00;0.00;;;;;;;12.70;100.00;98693.41;10544508;28;20064;-84
2023/03/31 15:34:35;;;;;;;0.00;0.00;;;;;;;12.35;100.00;98697.47;10546888;28;20052;-87
2023/03/31 15:39:45;;;;;;;0.32;0.32;;;;;;;12.27;100.00;98694.16;10530139;28;20134;-86
2023/03/31 15:44:54;;;;;;;0.20;0.20;;;;;;;12.34;100.00;98695.75;10520300;28;20559;-87
2023/03/31 15:50:03;;;;;;;1.15;0.30;;;;;;;12.63;100.00;98688.41;10520075;28;20483;-85
2023/03/31 15:55:25;;;;;;;0.00;0.00;;;;;;;12.52;100.00;98686.00;10521435;28;20035;-84
2023/03/31 16:00:33;;;;;;;0.10;0.10;;;;;;;12.56;100.00;98697.97;10530854;28;20058;-86
2023/03/31 16:05:55;;;;;;;0.00;0.00;;;;;;;12.83;100.00;98700.94;10524212;28;20372;-85
2023/03/31 16:11:06;;;;;;;0.00;0.00;;;;;;;12.52;100.00;98732.50;10500999;28;20047;-84
2023/03/31 16:16:10;;;;;;;0.30;0.10;;;;;;;12.62;100.00;98741.78;10510612;28;20040;-86
2023/03/31 16:21:15;;;;;;;0.50;0.50;;;;;;;12.53;100.00;98762.63;10532826;28;20302;-84
2023/03/31 16:26:22;;;;;;;0.05;0.05;;;;;;;12.46;100.00;98766.19;10514519;28;20052;-87
2023/03/31 16:31:33;;;;;;;1.25;0.10;;;;;;;12.29;100.00;98769.88;10525552;28;20044;-85
2023/03/31 16:36:35;;;;;;;0.10;0.05;;;;;;;11.96;100.00;98774.59;10505083;28;20498;-86
2023/03/31 16:41:37;;;;;;;0.00;0.00;;;;;;;12.13;100.00;98763.22;10550753;28;20097;-86
2023/03/31 16:46:38;;;;;;;0.00;0.00;;;;;;;11.97;100.00;98740.22;10516556;28;20403;-86
2023/03/31 16:51:40;;;;;;;0.10;0.10;;;;;;;12.04;100.00;98723.78;10515512;28;20048;-84
2023/03/31 16:56:42;;;;;;;0.10;0.10;;;;;;;12.03;100.00;98716.06;10543944;28;20499;-86
2023/03/31 17:01:44;;;;;;;0.00;0.00;;;;;;;11.90;100.00;98705.03;10553514;27;20052;-87
2023/03/31 17:06:46;;;;;;;0.00;0.00;;;;;;;11.91;100.00;98701.56;10529983;28;20044;-86
2023/03/31 17:11:48;;;;;;;0.00;0.00;;;;;;;11.99;100.00;98701.50;10518041;28;20039;-85
2023/03/31 17:16:50;;;;;;;0.20;0.17;;;;;;;11.80;100.00;98700.91;10525188;28;20464;-86
2023/03/31 17:21:51;;;;;;;1.55;0.40;;;;;;;11.67;100.00;98690.72;10517318;28;20043;-86
2023/03/31 17:26:53;;;;;;;0.00;0.00;;;;;;;11.60;100.00;98671.06;10532142;28;20051;-88
2023/03/31 17:31:56;;;;;;;0.00;0.00;;;;;;;11.48;100.00;98650.63;10540527;28;20092;-86
2023/03/31 17:36:58;;;;;;;0.03;0.00;;;;;;;11.33;100.00;98631.91;10516950;28;20040;-85
2023/03/31 17:42:03;;;;;;;0.00;0.00;;;;;;;11.28;100.00;98618.25;10525998;28;20052;-85
2023/03/31 17:47:05;;;;;;;0.35;0.35;;;;;;;11.20;100.00;98610.59;10516439;28;20048;-87
2023/03/31 17:52:07;;;;;;;0.00;0.00;;;;;;;11.32;100.00;98596.69;10548447;28;20101;-87
2023/03/31 17:57:08;;;;;;;0.00;0.00;;;;;;;11.17;100.00;98578.84;10534056;28;20043;-90
2023/03/31 18:02:14;;;;;;;0.10;0.10;;;;;;;10.93;100.00;98588.63;10532810;28;20479;-85
2023/03/31 18:07:19;;;;;;;0.00;0.00;;;;;;;11.12;100.00;98550.56;10519600;28;20048;-87
2023/03/31 18:12:21;;;;;;;0.00;0.00;;;;;;;10.70;100.00;98542.56;10535844;28;20166;-88
2023/03/31 18:17:23;;;;;;;0.00;0.00;;;;;;;10.79;100.00;98532.97;10524433;28;20447;-89
2023/03/31 18:22:25;;;;;;;0.00;0.00;;;;;;;10.89;100.00;98518.25;10534201;28;20091;-87
2023/03/31 18:27:26;;;;;;;0.00;0.00;;;;;;;10.70;100.00;98520.22;10531061;28;20040;-86
2023/03/31 18:32:28;;;;;;;0.28;0.22;;;;;;;10.83;100.00;98513.19;10555576;28;20047;-87
2023/03/31 18:37:30;;;;;;;0.00;0.00;;;;;;;10.73;100.00;98501.28;10540650;28;20051;-88
2023/03/31 18:42:32;;;;;;;0.17;0.17;;;;;;;10.57;100.00;98485.22;10542710;28;20491;-86
2023/03/31 18:47:34;;;;;;;0.47;0.20;;;;;;;10.73;100.00;98471.25;10527706;28;20048;-86
2023/03/31 18:52:36;;;;;;;0.63;0.63;;;;;;;10.54;100.00;98472.34;10540218;28;20036;-86
2023/03/31 18:57:38;;;;;;;0.13;0.13;;;;;;;10.56;100.00;98468.06;10528435;28;20058;-88
2023/03/31 19:02:40;;;;;;;0.00;0.00;;;;;;;10.71;100.00;98467.84;10519808;28;20476;-87
2023/03/31 19:07:42;;;;;;;0.00;0.00;;;;;;;10.79;100.00;98471.16;10530583;28;20479;-85
2023/03/31 19:12:47;;;;;;;0.00;0.00;;;;;;;10.78;100.00;98473.78;10531302;28;20052;-86
2023/03/31 19:17:49;;;;;;;0.00;0.00;;;;;;;10.83;100.00;98481.44;10545688;28;20040;-84
2023/03/31 19:22:51;;;;;;;0.00;0.00;;;;;;;10.57;100.00;98491.22;10533915;28;20055;-87
2023/03/31 19:27:53;;;;;;;0.90;0.65;;;;;;;11.17;100.00;98491.25;10527469;28;20035;-89
2023/03/31 19:32:55;;;;;;;0.20;0.00;;;;;;;11.08;100.00;98466.47;10528494;28;20040;-84
2023/03/31 19:37:56;;;;;;;0.00;0.00;;;;;;;10.89;100.00;98491.66;10521087;28;20044;-87
2023/03/31 19:42:58;;;;;;;0.98;0.30;;;;;;;10.93;100.00;98503.59;10520713;28;20056;-87
2023/03/31 19:48:00;;;;;;;1.38;0.45;;;;;;;10.81;100.00;98498.63;10534479;28;20036;-87
2023/03/31 19:53:02;;;;;;;0.30;0.10;;;;;;;10.65;100.00;98513.44;10529737;28;20059;-85
2023/03/31 19:58:03;;;;;;;0.10;0.10;;;;;;;10.73;100.00;98504.75;10557933;28;20045;-86
2023/03/31 20:03:05;;;;;;;0.17;0.03;;;;;;;11.02;100.00;98489.75;10535248;28;20036;-83
2023/03/31 20:08:07;;;;;;;0.00;0.00;;;;;;;10.28;100.00;98483.81;10552356;28;20040;-83
2023/03/31 20:13:09;;;;;;;0.00;0.00;;;;;;;10.36;100.00;98445.97;10501795;28;20056;-83
2023/03/31 20:18:11;;;;;;;0.00;0.00;;;;;;;10.27;100.00;98428.06;10519193;28;20399;-84
2023/03/31 20:23:13;;;;;;;0.00;0.00;;;;;;;10.18;100.00;98428.19;10518181;28;20040;-84
2023/03/31 20:28:14;;;;;;;0.00;0.00;;;;;;;10.54;100.00;98408.88;10540347;28;20407;-84
2023/03/31 20:33:16;;;;;;;0.00;0.00;;;;;;;10.55;100.00;98420.00;10518910;28;20052;-85
2023/03/31 20:38:18;;;;;;;0.20;0.20;;;;;;;10.56;100.00;98434.59;10500196;28;20052;-86
2023/03/31 20:43:19;;;;;;;0.20;0.20;;;;;;;10.72;100.00;98442.97;10515504;28;20059;-85
2023/03/31 20:48:21;;;;;;;0.00;0.00;;;;;;;10.45;100.00;98445.91;10516998;28;20043;-85
2023/03/31 20:53:23;;;;;;;0.65;0.47;;;;;;;10.48;100.00;98445.84;10510133;28;20052;-84
2023/03/31 20:58:26;;;;;;;0.00;0.00;;;;;;;10.60;100.00;98449.13;10534894;28;20033;-84
2023/03/31 21:03:27;;;;;;;0.28;0.10;;;;;;;10.46;100.00;98444.16;10541723;28;20102;-84
2023/03/31 21:08:30;;;;;;;0.40;0.28;;;;;;;10.42;100.00;98451.06;10524570;28;20056;-84
2023/03/31 21:13:31;;;;;;;0.63;0.20;;;;;;;10.51;100.00;98423.50;10512867;28;20055;-83
2023/03/31 21:18:36;;;;;;;0.30;0.30;;;;;;;10.24;100.00;98416.09;10518499;28;20048;-84
2023/03/31 21:23:38;;;;;;;0.03;0.03;;;;;;;10.26;100.00;98398.06;10499774;28;20027;-84
2023/03/31 21:28:40;;;;;;;0.00;0.00;;;;;;;10.62;100.00;98391.59;10526083;28;20146;-82
2023/03/31 21:33:42;;;;;;;0.10;0.10;;;;;;;10.29;100.00;98392.88;10506473;28;20045;-82
2023/03/31 21:38:44;;;;;;;0.00;0.00;;;;;;;10.28;100.00;98388.59;10512207;28;20055;-83
2023/03/31 21:43:47;;;;;;;0.95;0.10;;;;;;;9.96;100.00;98390.72;10518489;28;20105;-84
2023/03/31 21:48:49;;;;;;;0.00;0.00;;;;;;;9.94;100.00;98373.59;10512015;28;20063;-86
2023/03/31 21:54:00;;;;;;;0.00;0.00;;;;;;;9.92;100.00;98368.47;10540499;28;20050;-84
2023/03/31 21:59:03;;;;;;;0.00;0.00;;;;;;;9.96;100.00;98349.56;10530803;28;20040;-85
2023/03/31 22:04:04;;;;;;;0.85;0.20;;;;;;;9.79;100.00;98347.19;10533266;28;20041;-86
2023/03/31 22:09:06;;;;;;;0.70;0.32;;;;;;;9.86;100.00;98339.41;10543634;28;20040;-86
2023/03/31 22:14:08;;;;;;;0.00;0.00;;;;;;;9.97;100.00;98346.13;10538851;28;20039;-83
2023/03/31 22:19:11;;;;;;;0.10;0.10;;;;;;;9.93;100.00;98335.91;10538725;28;20041;-85
2023/03/31 22:24:13;;;;;;;0.00;0.00;;;;;;;9.84;100.00;98335.13;10543985;27;20035;-83
2023/03/31 22:29:15;;;;;;;0.00;0.00;;;;;;;10.05;100.00;98325.44;10512344;28;20063;-84
2023/03/31 22:34:18;;;;;;;0.10;0.10;;;;;;;9.91;100.00;98335.06;10504990;28;20048;-83
2023/03/31 22:39:22;;;;;;;0.88;0.60;;;;;;;9.92;100.00;98329.03;10519799;28;20510;-84
2023/03/31 22:44:24;;;;;;;0.43;0.30;;;;;;;9.89;100.00;98327.38;10527309;28;20036;-82
2023/03/31 22:49:25;;;;;;;0.10;0.10;;;;;;;9.91;100.00;98330.75;10539621;28;20561;-82
2023/03/31 22:54:27;;;;;;;0.10;0.10;;;;;;;10.00;100.00;98292.06;10521479;28;20128;-82
2023/03/31 22:59:36;;;;;;;0.15;0.10;;;;;;;10.04;100.00;98305.72;10519040;28;20046;-82
2023/03/31 23:04:38;;;;;;;2.38;0.35;;;;;;;9.90;100.00;98318.78;10513113;28;20048;-82
2023/03/31 23:09:40;;;;;;;0.00;0.00;;;;;;;9.93;100.00;98315.31;10520675;28;20048;-84
2023/03/31 23:14:42;;;;;;;0.13;0.10;;;;;;;9.97;100.00;98320.41;10517737;28;20044;-84
2023/03/31 23:19:46;;;;;;;0.00;0.00;;;;;;;10.09;100.00;98315.94;10540943;28;20036;-82
2023/03/31 23:24:48;;;;;;;0.43;0.43;;;;;;;9.95;100.00;98324.72;10537665;28;20040;-83
2023/03/31 23:29:50;;;;;;;0.08;0.08;;;;;;;9.92;100.00;98316.19;10493982;28;20059;-83